Time;durP1;ratioP1;P1;durP2;ratioP2;P2;SDS_P1;SDS_P2;PMS_P1;PMS_P2;Temp;Humidity;BMP_temperature;BMP_pressure;BME280_temperature;BME280_humidity;BME280_pressure;Samples;Min_cycle;Max_cycle;Signal;HPM_P1;HPM_P2
2023/09/27 00:02:22;;;;;;;19.88;14.45;;;;;;;;;;4989678;28;20037;-80
2023/09/27 00:04:51;;;;;;;17.65;14.35;;;;;;;;;;4992666;28;20117;-80
2023/09/27 00:07:16;;;;;;;18.13;14.10;;;;;;;;;;4972468;28;20770;-80
2023/09/27 00:09:41;;;;;;;19.08;14.00;;;;;;;;;;4989542;28;20130;-80
2023/09/27 00:12:07;;;;;;;21.98;14.82;;;;;;;;;;4974492;28;20037;-80
2023/09/27 00:14:32;;;;;;;19.40;14.35;;;;;;;;;;4988359;28;20056;-80
2023/09/27 00:16:58;;;;;;;16.92;13.45;;;;;;;;;;4990645;28;20080;-78
2023/09/27 00:19:24;;;;;;;18.80;13.75;;;;;;;;;;4975955;28;20048;-80
2023/09/27 00:21:49;;;;;;;19.92;14.05;;;;;;;;;;4986380;28;20037;-79
2023/09/27 00:24:15;;;;;;;22.08;15.25;;;;;;;;;;4979349;28;20485;-80
2023/09/27 00:26:41;;;;;;;18.13;14.23;;;;;;;;;;5002124;28;20041;-81
2023/09/27 00:29:06;;;;;;;18.20;14.02;;;;;;;;;;4967909;28;20072;-82
2023/09/27 00:31:32;;;;;;;18.40;14.18;;;;;;;;;;5007447;28;20069;-81
2023/09/27 00:33:57;;;;;;;19.58;14.77;;;;;;;;;;5003128;28;20034;-81
2023/09/27 00:36:23;;;;;;;19.42;14.82;;;;;;;;;;4992128;28;20072;-81
2023/09/27 00:38:49;;;;;;;18.42;14.55;;;;;;;;;;4989626;28;20041;-81
2023/09/27 00:41:14;;;;;;;20.15;14.45;;;;;;;;;;4985811;28;20038;-81
2023/09/27 00:43:40;;;;;;;18.98;14.82;;;;;;;;;;4980039;28;20065;-81
2023/09/27 00:46:06;;;;;;;20.17;15.27;;;;;;;;;;5008238;28;20497;-81
2023/09/27 00:48:33;;;;;;;18.35;14.20;;;;;;;;;;4992827;28;20501;-81
2023/09/27 00:50:59;;;;;;;18.67;14.88;;;;;;;;;;4986288;28;20030;-81
2023/09/27 00:53:27;;;;;;;21.20;14.57;;;;;;;;;;4994241;28;20038;-80
2023/09/27 00:55:52;;;;;;;20.60;14.35;;;;;;;;;;4978827;28;20120;-81
2023/09/27 00:58:19;;;;;;;19.58;14.93;;;;;;;;;;4983244;28;20510;-81
2023/09/27 01:00:50;;;;;;;20.48;15.07;;;;;;;;;;5005838;28;20037;-81
2023/09/27 01:03:16;;;;;;;19.58;14.10;;;;;;;;;;4971025;28;20084;-80
2023/09/27 01:05:42;;;;;;;21.63;14.80;;;;;;;;;;5004914;28;20494;-80
2023/09/27 01:08:07;;;;;;;21.33;14.60;;;;;;;;;;5006058;28;20506;-81
2023/09/27 01:10:34;;;;;;;20.30;14.90;;;;;;;;;;5002797;28;20042;-81
2023/09/27 01:12:59;;;;;;;20.75;15.52;;;;;;;;;;4981545;28;20041;-81
2023/09/27 01:15:25;;;;;;;19.55;15.07;;;;;;;;;;4985583;28;20030;-81
2023/09/27 01:17:58;;;;;;;19.65;14.68;;;;;;;;;;5002505;28;20038;-81
2023/09/27 01:20:27;;;;;;;19.17;15.18;;;;;;;;;;5003018;28;20040;-81
2023/09/27 01:23:02;;;;;;;20.23;15.55;;;;;;;;;;4990474;28;20536;-80
2023/09/27 01:25:32;;;;;;;19.85;15.32;;;;;;;;;;4999486;28;20041;-81
2023/09/27 01:27:58;;;;;;;18.70;14.15;;;;;;;;;;4988272;28;20375;-81
2023/09/27 01:30:25;;;;;;;21.80;15.60;;;;;;;;;;5002915;28;20513;-81
2023/09/27 01:32:51;;;;;;;18.70;15.02;;;;;;;;;;5002661;28;20148;-81
2023/09/27 01:35:16;;;;;;;19.42;15.02;;;;;;;;;;4990898;28;20121;-81
2023/09/27 01:37:42;;;;;;;21.35;16.10;;;;;;;;;;4992699;28;20061;-81
2023/09/27 01:40:14;;;;;;;19.40;15.10;;;;;;;;;;4991432;28;20045;-80
2023/09/27 01:42:43;;;;;;;18.77;14.40;;;;;;;;;;4998630;28;20065;-80
2023/09/27 01:45:14;;;;;;;23.20;15.18;;;;;;;;;;5006262;28;22263;-81
2023/09/27 01:47:40;;;;;;;21.00;15.38;;;;;;;;;;5006143;28;20038;-80
2023/09/27 01:50:09;;;;;;;22.25;16.15;;;;;;;;;;4995320;28;20630;-80
2023/09/27 01:52:34;;;;;;;19.17;14.23;;;;;;;;;;5003423;28;20038;-79
2023/09/27 01:55:00;;;;;;;21.92;15.52;;;;;;;;;;5003173;28;20030;-79
2023/09/27 01:57:25;;;;;;;18.73;14.45;;;;;;;;;;4989195;28;20034;-79
2023/09/27 02:00:05;;;;;;;20.70;14.50;;;;;;;;;;4999715;28;20030;-80
2023/09/27 02:02:31;;;;;;;18.73;14.20;;;;;;;;;;5003542;28;20079;-80
2023/09/27 02:04:56;;;;;;;21.95;15.60;;;;;;;;;;5003831;28;20030;-80
2023/09/27 02:07:22;;;;;;;21.38;15.23;;;;;;;;;;4989050;28;20042;-80
2023/09/27 02:09:47;;;;;;;22.88;16.13;;;;;;;;;;4991010;28;20046;-79
2023/09/27 02:12:13;;;;;;;23.50;16.67;;;;;;;;;;4989324;28;20065;-79
2023/09/27 02:14:41;;;;;;;20.38;15.85;;;;;;;;;;4999338;28;20458;-79
2023/09/27 02:17:07;;;;;;;20.98;16.15;;;;;;;;;;4989828;28;20180;-80
2023/09/27 02:19:34;;;;;;;25.27;16.35;;;;;;;;;;5004851;28;20038;-80
2023/09/27 02:22:00;;;;;;;20.50;15.93;;;;;;;;;;5004356;28;20083;-80
2023/09/27 02:24:25;;;;;;;20.70;16.08;;;;;;;;;;4982268;28;20037;-80
2023/09/27 02:26:51;;;;;;;21.25;15.75;;;;;;;;;;5001655;28;20038;-80
2023/09/27 02:29:16;;;;;;;20.85;16.23;;;;;;;;;;4988704;28;20465;-80
2023/09/27 02:31:42;;;;;;;20.52;15.48;;;;;;;;;;5000670;28;20401;-80
2023/09/27 02:34:08;;;;;;;25.63;16.20;;;;;;;;;;4987610;28;20100;-80
2023/09/27 02:36:33;;;;;;;20.83;15.77;;;;;;;;;;5004452;28;20041;-80
2023/09/27 02:38:59;;;;;;;22.60;16.30;;;;;;;;;;5008983;28;20044;-80
2023/09/27 02:41:24;;;;;;;22.02;15.93;;;;;;;;;;4997671;28;20046;-80
2023/09/27 02:43:50;;;;;;;22.02;16.35;;;;;;;;;;4990894;28;20046;-80
2023/09/27 02:46:15;;;;;;;23.60;16.13;;;;;;;;;;5000935;28;20181;-80
2023/09/27 02:48:40;;;;;;;23.30;17.05;;;;;;;;;;4971844;28;20046;-80
2023/09/27 02:51:06;;;;;;;23.05;17.23;;;;;;;;;;4985863;28;20100;-80
2023/09/27 02:53:31;;;;;;;23.63;17.25;;;;;;;;;;4986912;28;20379;-81
2023/09/27 02:55:58;;;;;;;24.63;17.52;;;;;;;;;;4987200;28;20030;-81
2023/09/27 02:58:23;;;;;;;21.98;16.27;;;;;;;;;;4979291;28;20044;-80
2023/09/27 03:00:48;;;;;;;22.58;16.45;;;;;;;;;;4985519;28;20038;-81
2023/09/27 03:03:14;;;;;;;23.40;16.85;;;;;;;;;;4992631;28;20040;-81
2023/09/27 03:05:40;;;;;;;23.38;16.63;;;;;;;;;;4979714;28;20042;-80
2023/09/27 03:08:07;;;;;;;23.40;16.85;;;;;;;;;;4992982;28;20046;-79
2023/09/27 03:10:37;;;;;;;24.30;17.20;;;;;;;;;;4966173;28;20037;-80
2023/09/27 03:13:02;;;;;;;27.15;18.00;;;;;;;;;;4959480;28;20046;-79
2023/09/27 03:15:28;;;;;;;27.05;17.70;;;;;;;;;;4973438;28;20035;-79
2023/09/27 03:17:54;;;;;;;25.13;18.30;;;;;;;;;;4982630;28;20478;-79
2023/09/27 03:20:19;;;;;;;28.25;19.38;;;;;;;;;;4985014;28;20055;-81
2023/09/27 03:22:48;;;;;;;28.98;20.10;;;;;;;;;;4974325;28;20093;-81
2023/09/27 03:25:16;;;;;;;28.30;19.55;;;;;;;;;;4974336;28;20147;-81
2023/09/27 03:27:42;;;;;;;27.55;19.63;;;;;;;;;;4969146;28;20045;-81
2023/09/27 03:30:08;;;;;;;26.88;18.92;;;;;;;;;;4973983;28;20043;-81
2023/09/27 03:32:33;;;;;;;26.92;18.67;;;;;;;;;;4974506;28;20190;-80
2023/09/27 03:35:02;;;;;;;29.88;18.80;;;;;;;;;;4986009;28;20096;-80
2023/09/27 03:37:28;;;;;;;33.30;18.70;;;;;;;;;;4974610;28;20034;-81
2023/09/27 03:39:53;;;;;;;26.55;18.23;;;;;;;;;;4973432;28;20035;-80
2023/09/27 03:42:20;;;;;;;26.08;18.58;;;;;;;;;;4966515;28;20043;-81
2023/09/27 03:44:47;;;;;;;25.35;18.38;;;;;;;;;;4984359;28;20041;-80
2023/09/27 03:47:12;;;;;;;25.17;18.23;;;;;;;;;;4985359;28;20058;-81
2023/09/27 03:49:40;;;;;;;23.55;17.23;;;;;;;;;;4986371;28;20075;-82
2023/09/27 03:52:06;;;;;;;23.65;17.23;;;;;;;;;;4972484;28;20498;-81
2023/09/27 03:54:34;;;;;;;23.80;16.50;;;;;;;;;;4978877;28;20065;-80
2023/09/27 03:57:00;;;;;;;23.02;17.20;;;;;;;;;;4971404;28;20035;-80
2023/09/27 03:59:25;;;;;;;24.98;17.33;;;;;;;;;;4965429;28;20037;-80
2023/09/27 04:01:51;;;;;;;22.95;17.13;;;;;;;;;;4974990;28;20034;-81
2023/09/27 04:04:17;;;;;;;24.77;17.52;;;;;;;;;;4987509;28;20061;-80
2023/09/27 04:06:43;;;;;;;21.17;15.93;;;;;;;;;;4962870;28;20125;-81
2023/09/27 04:09:09;;;;;;;21.77;16.08;;;;;;;;;;4988732;28;21284;-82
2023/09/27 04:11:36;;;;;;;21.02;15.70;;;;;;;;;;4973929;28;20031;-82
2023/09/27 04:14:01;;;;;;;22.55;16.27;;;;;;;;;;4993611;28;20064;-82
2023/09/27 04:16:30;;;;;;;21.67;15.95;;;;;;;;;;4992703;28;20038;-82
2023/09/27 04:18:56;;;;;;;20.30;15.02;;;;;;;;;;4995974;28;20041;-83
2023/09/27 04:21:21;;;;;;;21.90;15.45;;;;;;;;;;4986311;28;20477;-83
2023/09/27 04:23:54;;;;;;;22.67;16.38;;;;;;;;;;4971993;28;20046;-82
2023/09/27 04:26:22;;;;;;;22.08;16.52;;;;;;;;;;4993884;28;20116;-83
2023/09/27 04:28:48;;;;;;;22.02;16.52;;;;;;;;;;4976696;28;20045;-83
2023/09/27 04:31:14;;;;;;;22.20;15.65;;;;;;;;;;4993642;28;20035;-83
2023/09/27 04:33:44;;;;;;;24.17;17.02;;;;;;;;;;4991447;28;20092;-83
2023/09/27 04:36:15;;;;;;;20.30;15.25;;;;;;;;;;4989467;28;20045;-83
2023/09/27 04:38:40;;;;;;;21.02;16.23;;;;;;;;;;4984523;28;20505;-83
2023/09/27 04:41:06;;;;;;;21.98;16.15;;;;;;;;;;4984222;28;20042;-83
2023/09/27 04:43:32;;;;;;;21.73;15.30;;;;;;;;;;4978891;28;20042;-83
2023/09/27 04:45:59;;;;;;;22.77;15.55;;;;;;;;;;4977112;28;20076;-83
2023/09/27 04:48:25;;;;;;;24.50;16.15;;;;;;;;;;5000799;28;20045;-84
2023/09/27 04:50:52;;;;;;;22.13;15.57;;;;;;;;;;4980057;28;20057;-83
2023/09/27 04:53:23;;;;;;;18.92;14.57;;;;;;;;;;4990458;28;20038;-82
2023/09/27 04:55:49;;;;;;;19.30;14.60;;;;;;;;;;4999124;28;20037;-80
2023/09/27 04:58:14;;;;;;;19.55;14.18;;;;;;;;;;4984751;28;20031;-80
2023/09/27 05:00:40;;;;;;;20.67;15.18;;;;;;;;;;4981977;28;20038;-80
2023/09/27 05:03:07;;;;;;;21.15;15.40;;;;;;;;;;4967699;28;20104;-80
2023/09/27 05:05:32;;;;;;;21.67;15.50;;;;;;;;;;4971230;28;20046;-80
2023/09/27 05:07:58;;;;;;;20.27;14.95;;;;;;;;;;4985927;28;20042;-79
2023/09/27 05:10:23;;;;;;;21.38;14.02;;;;;;;;;;4971232;28;20076;-79
2023/09/27 05:12:48;;;;;;;18.85;13.18;;;;;;;;;;4988167;28;20037;-80
2023/09/27 05:15:14;;;;;;;19.98;14.02;;;;;;;;;;4986695;28;20530;-79
2023/09/27 05:17:39;;;;;;;19.10;13.30;;;;;;;;;;4969834;28;20133;-79
2023/09/27 05:20:09;;;;;;;19.23;14.15;;;;;;;;;;4972389;28;20042;-80
2023/09/27 05:22:35;;;;;;;17.90;14.00;;;;;;;;;;4982777;28;20493;-82
2023/09/27 05:25:00;;;;;;;17.95;14.20;;;;;;;;;;4972789;28;20033;-79
2023/09/27 05:27:26;;;;;;;21.75;14.70;;;;;;;;;;4973077;28;20520;-79
2023/09/27 05:29:53;;;;;;;18.55;14.57;;;;;;;;;;4984732;28;20085;-81
2023/09/27 05:32:19;;;;;;;21.42;15.20;;;;;;;;;;4983669;28;20529;-80
2023/09/27 05:34:44;;;;;;;20.15;13.95;;;;;;;;;;4984770;28;20040;-81
2023/09/27 05:37:10;;;;;;;22.75;15.40;;;;;;;;;;4987426;28;20108;-80
2023/09/27 05:39:36;;;;;;;20.13;14.98;;;;;;;;;;4963647;28;20036;-81
2023/09/27 05:42:04;;;;;;;20.83;13.70;;;;;;;;;;4958000;28;20251;-80
2023/09/27 05:44:30;;;;;;;21.67;14.98;;;;;;;;;;4998936;28;20117;-81
2023/09/27 05:46:55;;;;;;;21.23;15.55;;;;;;;;;;4988061;28;20065;-82
2023/09/27 05:49:21;;;;;;;18.83;14.35;;;;;;;;;;4969996;28;20435;-81
2023/09/27 05:51:46;;;;;;;21.92;15.05;;;;;;;;;;4994098;28;20401;-81
2023/09/27 05:54:12;;;;;;;22.52;15.77;;;;;;;;;;4976851;28;20087;-81
2023/09/27 05:56:40;;;;;;;25.25;15.02;;;;;;;;;;4987335;28;20031;-81
2023/09/27 05:59:08;;;;;;;18.98;14.50;;;;;;;;;;4986615;28;20038;-82
2023/09/27 06:01:35;;;;;;;22.65;14.85;;;;;;;;;;4980732;28;20525;-82
2023/09/27 06:04:01;;;;;;;20.95;14.55;;;;;;;;;;4978556;28;20112;-81
2023/09/27 06:06:27;;;;;;;20.85;16.05;;;;;;;;;;4983444;28;20097;-81
2023/09/27 06:08:54;;;;;;;21.10;15.57;;;;;;;;;;4990628;28;20083;-80
2023/09/27 06:11:20;;;;;;;;;;;;;;;;;;4963464;28;20413;-81
2023/09/27 06:13:45;;;;;;;21.53;15.03;;;;;;;;;;4991152;28;19917;-82
2023/09/27 06:16:15;;;;;;;19.08;14.95;;;;;;;;;;4974176;28;20277;-82
2023/09/27 06:18:41;;;;;;;22.35;16.00;;;;;;;;;;4969860;28;20043;-81
2023/09/27 06:21:07;;;;;;;19.27;15.25;;;;;;;;;;4986918;28;20564;-83
2023/09/27 06:23:33;;;;;;;24.15;15.98;;;;;;;;;;4990666;28;20114;-82
2023/09/27 06:25:58;;;;;;;20.27;14.80;;;;;;;;;;4977204;28;20034;-82
2023/09/27 06:28:24;;;;;;;21.40;15.48;;;;;;;;;;4990031;28;20046;-80
2023/09/27 06:30:49;;;;;;;20.70;15.63;;;;;;;;;;4976501;28;20124;-83
2023/09/27 06:33:15;;;;;;;23.52;16.20;;;;;;;;;;4971037;28;20093;-82
2023/09/27 06:35:43;;;;;;;22.58;16.38;;;;;;;;;;4978230;28;20034;-82
2023/09/27 06:38:09;;;;;;;24.55;16.20;;;;;;;;;;4989821;28;20510;-82
2023/09/27 06:40:35;;;;;;;22.80;16.30;;;;;;;;;;4985515;28;20045;-82
2023/09/27 06:43:01;;;;;;;23.48;15.55;;;;;;;;;;4978725;28;20076;-82
2023/09/27 06:45:27;;;;;;;20.30;15.50;;;;;;;;;;4976843;28;20058;-82
2023/09/27 06:47:54;;;;;;;20.35;15.38;;;;;;;;;;4986479;28;20038;-83
2023/09/27 06:50:19;;;;;;;20.55;15.10;;;;;;;;;;4984961;28;20073;-82
2023/09/27 06:52:46;;;;;;;25.80;17.00;;;;;;;;;;4989780;28;20035;-83
2023/09/27 06:55:12;;;;;;;23.27;15.23;;;;;;;;;;4972043;28;20046;-81
2023/09/27 06:57:39;;;;;;;24.65;14.82;;;;;;;;;;4973681;28;20541;-83
2023/09/27 07:00:10;;;;;;;20.33;14.07;;;;;;;;;;4992229;28;20450;-82
2023/09/27 07:02:35;;;;;;;21.55;13.60;;;;;;;;;;4974856;28;20088;-82
2023/09/27 07:05:01;;;;;;;39.22;13.43;;;;;;;;;;4990855;28;20046;-84
2023/09/27 07:07:29;;;;;;;19.92;12.60;;;;;;;;;;4992051;28;20053;-82
2023/09/27 07:09:55;;;;;;;18.20;12.45;;;;;;;;;;4990470;28;20097;-82
2023/09/27 07:12:21;;;;;;;16.92;11.32;;;;;;;;;;4986586;28;20509;-82
2023/09/27 07:14:46;;;;;;;15.80;11.73;;;;;;;;;;4986029;28;20031;-82
2023/09/27 07:17:12;;;;;;;16.40;12.23;;;;;;;;;;4976517;28;20042;-82
2023/09/27 07:19:38;;;;;;;16.50;12.38;;;;;;;;;;4987855;28;20698;-82
2023/09/27 07:22:03;;;;;;;15.68;12.23;;;;;;;;;;4983031;28;20394;-82
2023/09/27 07:24:33;;;;;;;15.50;12.23;;;;;;;;;;4975573;28;20085;-83
2023/09/27 07:27:02;;;;;;;16.17;10.93;;;;;;;;;;4982762;28;20072;-83
2023/09/27 07:29:28;;;;;;;16.15;11.43;;;;;;;;;;4966243;28;20037;-82
2023/09/27 07:31:53;;;;;;;14.63;11.40;;;;;;;;;;4986830;28;20038;-82
2023/09/27 07:34:20;;;;;;;14.07;10.25;;;;;;;;;;4991146;28;20037;-82
2023/09/27 07:36:45;;;;;;;13.07;10.23;;;;;;;;;;5006216;28;20041;-83
2023/09/27 07:39:11;;;;;;;11.35;9.15;;;;;;;;;;4995406;28;20036;-81
2023/09/27 07:41:37;;;;;;;14.68;9.70;;;;;;;;;;4992730;28;20527;-83
2023/09/27 07:44:06;;;;;;;13.23;9.50;;;;;;;;;;4995548;28;20037;-82
2023/09/27 07:46:32;;;;;;;13.63;9.32;;;;;;;;;;4992172;28;20037;-83
2023/09/27 07:48:58;;;;;;;11.10;8.77;;;;;;;;;;4989958;28;20045;-83
2023/09/27 07:51:23;;;;;;;14.55;9.35;;;;;;;;;;4987064;28;20084;-82
2023/09/27 07:53:48;;;;;;;10.77;9.23;;;;;;;;;;4986467;28;20116;-82
2023/09/27 07:56:23;;;;;;;16.20;9.00;;;;;;;;;;4990412;28;20378;-83
2023/09/27 07:58:51;;;;;;;13.23;8.52;;;;;;;;;;5003322;28;20037;-81
2023/09/27 08:01:20;;;;;;;13.30;8.10;;;;;;;;;;5010591;28;20042;-82
2023/09/27 08:03:51;;;;;;;12.60;8.68;;;;;;;;;;4980143;28;20043;-82
2023/09/27 08:06:17;;;;;;;9.98;7.65;;;;;;;;;;4980028;28;20041;-82
2023/09/27 08:08:47;;;;;;;11.38;7.95;;;;;;;;;;5008931;28;20099;-82
2023/09/27 08:11:13;;;;;;;12.75;7.45;;;;;;;;;;4987706;28;20030;-82
2023/09/27 08:13:38;;;;;;;13.75;7.22;;;;;;;;;;4982786;28;20041;-82
2023/09/27 08:16:06;;;;;;;11.23;7.15;;;;;;;;;;4990513;28;20038;-83
2023/09/27 08:18:33;;;;;;;12.48;7.70;;;;;;;;;;4981563;28;20527;-84
2023/09/27 08:20:59;;;;;;;9.55;7.18;;;;;;;;;;4979991;28;20037;-84
2023/09/27 08:23:24;;;;;;;12.10;7.45;;;;;;;;;;4991968;28;20037;-82
2023/09/27 08:25:52;;;;;;;12.25;6.55;;;;;;;;;;5008562;28;20041;-83
2023/09/27 08:28:17;;;;;;;11.77;6.63;;;;;;;;;;4991535;28;20045;-82
2023/09/27 08:30:43;;;;;;;10.93;6.60;;;;;;;;;;4993434;28;20397;-83
2023/09/27 08:33:13;;;;;;;7.78;5.28;;;;;;;;;;4992221;28;20498;-83
2023/09/27 08:35:39;;;;;;;12.05;5.07;;;;;;;;;;4987603;28;20084;-82
2023/09/27 08:38:04;;;;;;;8.55;5.82;;;;;;;;;;4964098;28;20422;-83
2023/09/27 08:40:30;;;;;;;9.80;4.70;;;;;;;;;;4973082;28;20084;-83
2023/09/27 08:43:00;;;;;;;9.43;5.43;;;;;;;;;;4998554;28;20038;-83
2023/09/27 08:45:26;;;;;;;8.68;4.50;;;;;;;;;;4991148;28;20053;-84
2023/09/27 08:47:52;;;;;;;10.23;4.90;;;;;;;;;;5007095;28;20037;-83
2023/09/27 08:50:19;;;;;;;8.52;4.50;;;;;;;;;;5005413;28;20393;-83
2023/09/27 08:52:46;;;;;;;8.30;4.35;;;;;;;;;;4994076;28;20489;-81
2023/09/27 08:55:16;;;;;;;6.95;3.92;;;;;;;;;;5008925;28;20056;-84
2023/09/27 08:57:48;;;;;;;6.07;4.25;;;;;;;;;;4986569;28;20042;-82
2023/09/27 09:00:14;;;;;;;8.80;3.88;;;;;;;;;;5010036;28;20433;-83
2023/09/27 09:02:43;;;;;;;7.70;3.95;;;;;;;;;;5004790;28;20038;-82
2023/09/27 09:05:11;;;;;;;7.95;4.93;;;;;;;;;;5008129;28;20054;-82
2023/09/27 09:07:40;;;;;;;10.55;4.53;;;;;;;;;;4994054;28;20029;-82
2023/09/27 09:10:09;;;;;;;10.57;4.20;;;;;;;;;;4990184;28;20045;-80
2023/09/27 09:12:35;;;;;;;7.25;3.95;;;;;;;;;;5002713;28;20044;-83
2023/09/27 09:15:05;;;;;;;7.53;3.63;;;;;;;;;;5007502;28;20038;-83
2023/09/27 09:17:34;;;;;;;6.47;3.72;;;;;;;;;;5004216;28;20035;-83
2023/09/27 09:20:21;;;;;;;7.25;3.95;;;;;;;;;;4994193;28;20051;-83
2023/09/27 09:22:50;;;;;;;11.07;4.43;;;;;;;;;;5007626;28;20034;-83
2023/09/27 09:25:15;;;;;;;5.22;3.53;;;;;;;;;;5004928;28;20029;-82
2023/09/27 09:27:41;;;;;;;7.27;4.00;;;;;;;;;;4998625;28;20493;-81
2023/09/27 09:30:09;;;;;;;7.27;3.50;;;;;;;;;;5006233;28;20042;-83
2023/09/27 09:32:47;;;;;;;7.22;4.07;;;;;;;;;;4986122;28;20050;-82
2023/09/27 09:35:31;;;;;;;7.55;4.22;;;;;;;;;;5000898;28;20057;-83
2023/09/27 09:38:01;;;;;;;7.43;4.03;;;;;;;;;;5007169;28;20607;-82
2023/09/27 09:40:27;;;;;;;7.97;4.60;;;;;;;;;;4991754;28;20620;-82
2023/09/27 09:42:53;;;;;;;9.23;4.67;;;;;;;;;;4996547;28;20049;-83
2023/09/27 09:45:20;;;;;;;8.98;4.10;;;;;;;;;;4992102;28;20389;-83
2023/09/27 09:47:46;;;;;;;6.57;4.30;;;;;;;;;;4982407;28;20037;-82
2023/09/27 09:50:19;;;;;;;6.35;3.72;;;;;;;;;;4982536;28;20048;-82
2023/09/27 09:52:58;;;;;;;7.43;3.63;;;;;;;;;;5011616;28;20037;-82
2023/09/27 09:55:25;;;;;;;9.80;4.05;;;;;;;;;;5006779;28;20128;-83
2023/09/27 09:58:14;;;;;;;6.80;4.05;;;;;;;;;;5010623;28;20040;-82
2023/09/27 10:00:48;;;;;;;6.97;3.70;;;;;;;;;;5012115;28;20038;-82
2023/09/27 10:03:19;;;;;;;7.90;4.05;;;;;;;;;;4993493;28;20115;-82
2023/09/27 10:05:45;;;;;;;6.88;4.15;;;;;;;;;;4989176;28;20041;-82
2023/09/27 10:08:10;;;;;;;8.40;4.03;;;;;;;;;;4996305;28;20036;-82
2023/09/27 10:10:37;;;;;;;7.20;4.40;;;;;;;;;;4976366;28;20033;-81
2023/09/27 10:13:06;;;;;;;7.05;3.90;;;;;;;;;;4999000;28;20037;-83
2023/09/27 10:15:35;;;;;;;8.50;3.83;;;;;;;;;;5011540;28;20433;-82
2023/09/27 10:18:22;;;;;;;8.55;4.00;;;;;;;;;;5011644;28;20044;-82
2023/09/27 10:23:46;;;;;;;7.18;4.13;;;;;;;;;;5012511;28;19917;-82
2023/09/27 10:26:27;;;;;;;7.22;4.18;;;;;;;;;;5011326;28;20050;-82
2023/09/27 10:29:04;;;;;;;7.80;3.80;;;;;;;;;;5008163;28;20063;-82
2023/09/27 10:31:37;;;;;;;7.38;3.63;;;;;;;;;;5005942;28;20041;-81
2023/09/27 10:34:29;;;;;;;7.18;3.42;;;;;;;;;;5000317;28;20048;-82
2023/09/27 10:36:55;;;;;;;10.27;3.42;;;;;;;;;;5007991;28;20034;-82
2023/09/27 10:39:21;;;;;;;6.47;3.67;;;;;;;;;;4999140;28;20049;-83
2023/09/27 10:41:48;;;;;;;7.25;3.60;;;;;;;;;;4986594;28;20045;-82
2023/09/27 10:44:27;;;;;;;6.40;3.60;;;;;;;;;;4985547;28;20086;-83
2023/09/27 10:46:52;;;;;;;7.38;3.50;;;;;;;;;;4973866;28;20516;-82
2023/09/27 10:49:22;;;;;;;6.95;3.28;;;;;;;;;;4995594;28;20034;-81
2023/09/27 10:51:48;;;;;;;8.27;3.50;;;;;;;;;;4986983;28;20031;-82
2023/09/27 10:54:14;;;;;;;7.05;3.53;;;;;;;;;;4981311;28;20064;-83
2023/09/27 10:56:44;;;;;;;6.18;3.45;;;;;;;;;;4981670;28;20366;-82
2023/09/27 10:59:10;;;;;;;5.55;2.90;;;;;;;;;;4995496;28;20069;-82
2023/09/27 11:01:42;;;;;;;7.60;3.20;;;;;;;;;;4977318;28;20042;-80
2023/09/27 11:04:12;;;;;;;6.90;3.45;;;;;;;;;;4988544;28;20071;-82
2023/09/27 11:06:37;;;;;;;5.18;3.15;;;;;;;;;;4982454;28;20505;-82
2023/09/27 11:09:12;;;;;;;5.32;2.67;;;;;;;;;;4993557;28;20066;-82
2023/09/27 11:11:43;;;;;;;5.45;2.80;;;;;;;;;;4986778;28;20405;-83
2023/09/27 11:14:09;;;;;;;6.63;2.70;;;;;;;;;;4993255;28;20038;-83
2023/09/27 11:16:35;;;;;;;5.85;2.30;;;;;;;;;;4968971;28;20056;-82
2023/09/27 11:19:02;;;;;;;5.27;2.40;;;;;;;;;;4991931;28;20045;-82
2023/09/27 11:21:28;;;;;;;4.30;2.03;;;;;;;;;;5003404;28;20616;-82
2023/09/27 11:23:58;;;;;;;4.63;1.88;;;;;;;;;;4974247;28;20038;-82
2023/09/27 11:26:24;;;;;;;4.35;2.15;;;;;;;;;;4995464;28;20527;-84
2023/09/27 11:28:57;;;;;;;4.72;1.67;;;;;;;;;;4978835;23;20062;-80
2023/09/27 11:31:23;;;;;;;5.30;1.67;;;;;;;;;;4974814;28;20045;-80
2023/09/27 11:33:49;;;;;;;;;;;;;;;;;;4950046;28;20454;-81
2023/09/27 11:36:14;;;;;;;;;;;;;;;;;;4959846;28;19957;-81
2023/09/27 11:38:48;;;;;;;3.30;1.70;;;;;;;;;;4982679;28;19980;-81
2023/09/27 11:41:16;;;;;;;6.22;1.90;;;;;;;;;;4978719;28;20045;-80
2023/09/27 11:43:41;;;;;;;4.68;1.70;;;;;;;;;;4973498;28;20125;-80
2023/09/27 11:46:07;;;;;;;4.70;1.50;;;;;;;;;;4981757;28;20046;-78
2023/09/27 11:48:33;;;;;;;3.37;1.70;;;;;;;;;;4973962;28;20062;-80
2023/09/27 11:51:00;;;;;;;5.07;1.60;;;;;;;;;;4966997;28;20991;-80
2023/09/27 11:53:26;;;;;;;4.15;1.70;;;;;;;;;;4958492;28;20035;-80
2023/09/27 11:55:51;;;;;;;5.65;1.80;;;;;;;;;;4961079;28;20474;-79
2023/09/27 11:58:20;;;;;;;4.33;1.77;;;;;;;;;;4960847;28;20039;-82
2023/09/27 12:00:45;;;;;;;3.95;1.70;;;;;;;;;;4973051;28;20094;-81
2023/09/27 12:03:14;;;;;;;5.10;2.37;;;;;;;;;;4961773;28;20431;-81
2023/09/27 12:05:39;;;;;;;6.95;2.05;;;;;;;;;;4981646;28;20403;-79
2023/09/27 12:08:10;;;;;;;6.57;2.50;;;;;;;;;;4958140;28;20262;-80
2023/09/27 12:10:36;;;;;;;3.90;2.08;;;;;;;;;;4947057;28;20396;-81
2023/09/27 12:13:01;;;;;;;5.13;2.53;;;;;;;;;;4956294;28;20043;-80
2023/09/27 12:15:29;;;;;;;4.65;2.50;;;;;;;;;;4962821;28;20121;-81
2023/09/27 12:17:55;;;;;;;6.85;2.78;;;;;;;;;;4970664;28;20043;-80
2023/09/27 12:20:20;;;;;;;5.20;2.85;;;;;;;;;;4951912;28;20372;-81
2023/09/27 12:22:46;;;;;;;5.68;3.60;;;;;;;;;;4959277;28;20679;-80
2023/09/27 12:25:11;;;;;;;7.13;3.47;;;;;;;;;;4949405;28;20043;-80
2023/09/27 12:27:40;;;;;;;7.20;2.90;;;;;;;;;;4946166;28;20043;-79
2023/09/27 12:30:06;;;;;;;5.82;2.85;;;;;;;;;;4961941;28;20085;-81
2023/09/27 12:32:31;;;;;;;5.43;3.20;;;;;;;;;;4980867;28;20034;-80
2023/09/27 12:34:57;;;;;;;7.10;3.28;;;;;;;;;;4939980;28;20049;-80
2023/09/27 12:37:23;;;;;;;7.57;3.50;;;;;;;;;;4964529;28;20078;-81
2023/09/27 12:39:48;;;;;;;6.03;3.20;;;;;;;;;;4975378;28;20036;-81
2023/09/27 12:42:14;;;;;;;6.65;3.40;;;;;;;;;;4946317;28;20103;-80
2023/09/27 12:44:39;;;;;;;6.95;3.38;;;;;;;;;;4940796;28;20062;-82
2023/09/27 12:47:05;;;;;;;8.40;3.38;;;;;;;;;;4959821;28;20491;-83
2023/09/27 12:49:31;;;;;;;10.15;3.60;;;;;;;;;;4939422;28;20042;-82
2023/09/27 12:51:56;;;;;;;7.43;3.97;;;;;;;;;;4957297;28;20050;-85
2023/09/27 12:54:22;;;;;;;6.95;3.30;;;;;;;;;;4962668;28;20125;-84
2023/09/27 12:56:48;;;;;;;6.72;3.45;;;;;;;;;;4960420;28;20035;-84
2023/09/27 12:59:14;;;;;;;8.00;3.53;;;;;;;;;;4949587;28;20047;-84
2023/09/27 13:01:39;;;;;;;6.97;3.60;;;;;;;;;;4963688;28;20039;-83
2023/09/27 13:04:05;;;;;;;6.85;3.30;;;;;;;;;;4958448;28;20035;-81
2023/09/27 13:06:30;;;;;;;9.13;3.58;;;;;;;;;;4958068;28;20031;-80
2023/09/27 13:08:56;;;;;;;6.93;3.45;;;;;;;;;;4973624;28;20145;-80
2023/09/27 13:11:22;;;;;;;9.10;3.50;;;;;;;;;;4960104;28;20114;-80
2023/09/27 13:13:49;;;;;;;6.68;3.42;;;;;;;;;;4960056;28;20031;-81
2023/09/27 13:16:14;;;;;;;7.63;3.60;;;;;;;;;;4956342;28;20526;-82
2023/09/27 13:18:40;;;;;;;8.90;3.50;;;;;;;;;;4979470;28;20187;-83
2023/09/27 13:21:10;;;;;;;7.75;3.90;;;;;;;;;;4982485;28;20043;-82
2023/09/27 13:23:35;;;;;;;7.80;3.60;;;;;;;;;;4957635;28;20534;-80
2023/09/27 13:26:21;;;;;;;7.72;3.78;;;;;;;;;;4958624;28;20045;-83
2023/09/27 13:28:47;;;;;;;7.38;4.43;;;;;;;;;;4905743;29;20495;-81
2023/09/27 13:31:12;;;;;;;6.00;3.85;;;;;;;;;;4922200;29;20050;-82
2023/09/27 13:33:38;;;;;;;7.18;3.67;;;;;;;;;;4908509;29;20040;-80
2023/09/27 13:36:04;;;;;;;7.22;3.70;;;;;;;;;;4891865;29;20127;-80
2023/09/27 13:38:29;;;;;;;9.38;3.65;;;;;;;;;;4888952;29;20043;-81
2023/09/27 13:41:07;;;;;;;6.80;3.60;;;;;;;;;;4918318;29;20040;-81
2023/09/27 13:43:34;;;;;;;;;;;;;;;;;;4920960;29;20043;-82
2023/09/27 13:46:00;;;;;;;6.43;4.13;;;;;;;;;;4919184;29;20314;-81
2023/09/27 13:48:25;;;;;;;7.93;3.92;;;;;;;;;;4902163;29;20096;-80
2023/09/27 13:50:50;;;;;;;7.03;4.18;;;;;;;;;;4897848;29;20460;-82
2023/09/27 13:53:16;;;;;;;8.93;4.00;;;;;;;;;;4924495;29;20054;-82
2023/09/27 13:55:51;;;;;;;9.23;3.75;;;;;;;;;;4890851;29;20040;-84
2023/09/27 13:58:16;;;;;;;7.50;4.35;;;;;;;;;;4906138;28;20411;-81
2023/09/27 14:00:45;;;;;;;6.60;3.67;;;;;;;;;;4904177;28;20047;-82
2023/09/27 14:03:12;;;;;;;7.45;3.90;;;;;;;;;;4924036;28;20524;-83
2023/09/27 14:05:37;;;;;;;6.95;4.05;;;;;;;;;;4929055;28;20040;-81
2023/09/27 14:08:06;;;;;;;6.55;3.90;;;;;;;;;;4935276;28;20050;-82
2023/09/27 14:10:37;;;;;;;7.97;3.83;;;;;;;;;;4920688;28;20468;-81
2023/09/27 14:13:03;;;;;;;6.55;3.55;;;;;;;;;;4937564;28;20035;-82
2023/09/27 14:15:28;;;;;;;8.18;3.80;;;;;;;;;;4919720;28;20031;-82
2023/09/27 14:17:54;;;;;;;6.97;3.90;;;;;;;;;;4938055;28;20039;-83
2023/09/27 14:20:20;;;;;;;5.68;3.78;;;;;;;;;;4936754;28;20039;-82
2023/09/27 14:22:52;;;;;;;7.47;3.90;;;;;;;;;;4937514;28;20096;-82
2023/09/27 14:25:17;;;;;;;6.88;3.90;;;;;;;;;;4927218;28;20492;-82
2023/09/27 14:27:46;;;;;;;7.88;4.00;;;;;;;;;;4938075;28;20046;-83
2023/09/27 14:30:12;;;;;;;8.30;3.92;;;;;;;;;;4931431;28;20107;-82
2023/09/27 14:32:39;;;;;;;8.60;4.00;;;;;;;;;;4954749;28;20490;-82